sensor_id;sensor_type;location;lat;lon;timestamp;temperature;humidity
6930;DHT22;3504;52.616;13.238;2023-07-08T00:03:51;17.00;70.12
6930;DHT22;3504;52.616;13.238;2023-07-08T00:08:52;16.92;70.26
6930;DHT22;3504;52.616;13.238;2023-07-08T00:13:52;16.92;69.58
6930;DHT22;3504;52.616;13.238;2023-07-08T00:18:53;16.84;70.46
6930;DHT22;3504;52.616;13.238;2023-07-08T00:23:53;16.74;69.51
6930;DHT22;3504;52.616;13.238;2023-07-08T00:28:56;16.70;70.77
6930;DHT22;3504;52.616;13.238;2023-07-08T00:33:56;16.59;70.94
6930;DHT22;3504;52.616;13.238;2023-07-08T00:38:57;16.49;70.43
6930;DHT22;3504;52.616;13.238;2023-07-08T00:43:59;16.43;70.52
6930;DHT22;3504;52.616;13.238;2023-07-08T00:54:16;16.22;70.88
6930;DHT22;3504;52.616;13.238;2023-07-08T00:59:39;16.14;71.32
6930;DHT22;3504;52.616;13.238;2023-07-08T01:05:05;16.10;71.57
6930;DHT22;3504;52.616;13.238;2023-07-08T01:10:12;16.01;71.17
6930;DHT22;3504;52.616;13.238;2023-07-08T01:15:13;15.90;72.06
6930;DHT22;3504;52.616;13.238;2023-07-08T01:20:15;15.85;70.71
6930;DHT22;3504;52.616;13.238;2023-07-08T01:25:16;15.80;71.69
6930;DHT22;3504;52.616;13.238;2023-07-08T01:30:16;15.75;71.99
6930;DHT22;3504;52.616;13.238;2023-07-08T01:35:17;15.68;71.75
6930;DHT22;3504;52.616;13.238;2023-07-08T01:45:25;15.53;72.49
6930;DHT22;3504;52.616;13.238;2023-07-08T01:50:27;15.50;71.85
6930;DHT22;3504;52.616;13.238;2023-07-08T01:55:29;15.49;72.19
6930;DHT22;3504;52.616;13.238;2023-07-08T02:00:31;15.42;72.21
6930;DHT22;3504;52.616;13.238;2023-07-08T02:05:34;15.40;71.92
6930;DHT22;3504;52.616;13.238;2023-07-08T02:10:40;15.35;72.50
6930;DHT22;3504;52.616;13.238;2023-07-08T02:15:41;15.24;72.90
6930;DHT22;3504;52.616;13.238;2023-07-08T02:20:43;15.16;73.42
6930;DHT22;3504;52.616;13.238;2023-07-08T02:25:51;15.08;73.53
6930;DHT22;3504;52.616;13.238;2023-07-08T02:30:52;15.02;73.56
6930;DHT22;3504;52.616;13.238;2023-07-08T02:35:53;15.00;72.25
6930;DHT22;3504;52.616;13.238;2023-07-08T02:40:54;15.02;72.90
6930;DHT22;3504;52.616;13.238;2023-07-08T02:45:54;14.98;72.74
6930;DHT22;3504;52.616;13.238;2023-07-08T02:51:03;14.92;73.10
6930;DHT22;3504;52.616;13.238;2023-07-08T02:56:03;14.84;73.57
6930;DHT22;3504;52.616;13.238;2023-07-08T03:01:04;14.74;73.39
6930;DHT22;3504;52.616;13.238;2023-07-08T03:06:08;14.67;74.17
6930;DHT22;3504;52.616;13.238;2023-07-08T03:11:09;14.58;74.37
6930;DHT22;3504;52.616;13.238;2023-07-08T03:16:12;14.57;73.28
6930;DHT22;3504;52.616;13.238;2023-07-08T03:21:15;14.55;73.69
6930;DHT22;3504;52.616;13.238;2023-07-08T03:26:23;14.54;73.94
6930;DHT22;3504;52.616;13.238;2023-07-08T03:31:25;14.51;73.44
6930;DHT22;3504;52.616;13.238;2023-07-08T03:36:26;14.54;73.45
6930;DHT22;3504;52.616;13.238;2023-07-08T03:41:26;14.53;73.97
6930;DHT22;3504;52.616;13.238;2023-07-08T03:46:29;14.54;74.20
6930;DHT22;3504;52.616;13.238;2023-07-08T03:51:33;14.50;75.05
6930;DHT22;3504;52.616;13.238;2023-07-08T03:56:34;14.45;75.36
6930;DHT22;3504;52.616;13.238;2023-07-08T04:01:36;14.42;74.61
6930;DHT22;3504;52.616;13.238;2023-07-08T04:06:39;14.48;75.04
6930;DHT22;3504;52.616;13.238;2023-07-08T04:11:41;14.54;75.34
6930;DHT22;3504;52.616;13.238;2023-07-08T04:17:07;14.55;74.96
6930;DHT22;3504;52.616;13.238;2023-07-08T04:22:07;14.63;74.68
6930;DHT22;3504;52.616;13.238;2023-07-08T04:27:14;14.69;74.98
6930;DHT22;3504;52.616;13.238;2023-07-08T04:32:15;14.78;74.58
6930;DHT22;3504;52.616;13.238;2023-07-08T04:37:16;14.84;74.32
6930;DHT22;3504;52.616;13.238;2023-07-08T04:42:16;14.92;74.55
6930;DHT22;3504;52.616;13.238;2023-07-08T04:47:17;15.02;73.85
6930;DHT22;3504;52.616;13.238;2023-07-08T04:52:20;15.12;73.94
6930;DHT22;3504;52.616;13.238;2023-07-08T04:57:21;15.24;73.86
6930;DHT22;3504;52.616;13.238;2023-07-08T05:02:21;15.40;73.98
6930;DHT22;3504;52.616;13.238;2023-07-08T05:07:22;15.56;73.47
6930;DHT22;3504;52.616;13.238;2023-07-08T05:12:23;15.78;73.02
6930;DHT22;3504;52.616;13.238;2023-07-08T05:17:23;16.00;73.02
6930;DHT22;3504;52.616;13.238;2023-07-08T05:22:25;16.21;72.67
6930;DHT22;3504;52.616;13.238;2023-07-08T05:27:26;16.42;72.08
6930;DHT22;3504;52.616;13.238;2023-07-08T05:32:26;16.60;72.16
6930;DHT22;3504;52.616;13.238;2023-07-08T05:37:27;16.80;71.57
6930;DHT22;3504;52.616;13.238;2023-07-08T05:42:29;17.08;70.82
6930;DHT22;3504;52.616;13.238;2023-07-08T05:47:30;17.41;69.93
6930;DHT22;3504;52.616;13.238;2023-07-08T05:52:30;17.86;70.71
6930;DHT22;3504;52.616;13.238;2023-07-08T05:57:31;18.51;68.18
6930;DHT22;3504;52.616;13.238;2023-07-08T06:02:31;19.40;66.41
6930;DHT22;3504;52.616;13.238;2023-07-08T06:07:32;20.21;62.83
6930;DHT22;3504;52.616;13.238;2023-07-08T06:12:32;20.90;58.73
6930;DHT22;3504;52.616;13.238;2023-07-08T06:17:33;21.59;58.54
6930;DHT22;3504;52.616;13.238;2023-07-08T06:22:36;22.25;55.44
6930;DHT22;3504;52.616;13.238;2023-07-08T06:27:37;22.71;55.51
6930;DHT22;3504;52.616;13.238;2023-07-08T06:32:37;23.12;55.34
6930;DHT22;3504;52.616;13.238;2023-07-08T06:37:38;23.56;52.71
6930;DHT22;3504;52.616;13.238;2023-07-08T06:42:38;23.83;50.84
6930;DHT22;3504;52.616;13.238;2023-07-08T06:47:46;24.27;52.17
6930;DHT22;3504;52.616;13.238;2023-07-08T06:52:46;24.44;50.85
6930;DHT22;3504;52.616;13.238;2023-07-08T06:57:47;24.68;49.57
6930;DHT22;3504;52.616;13.238;2023-07-08T07:02:47;24.82;49.03
6930;DHT22;3504;52.616;13.238;2023-07-08T07:07:48;25.16;50.71
6930;DHT22;3504;52.616;13.238;2023-07-08T07:12:48;25.51;48.12
6930;DHT22;3504;52.616;13.238;2023-07-08T07:17:49;25.83;48.63
6930;DHT22;3504;52.616;13.238;2023-07-08T07:22:52;25.91;46.92
6930;DHT22;3504;52.616;13.238;2023-07-08T07:27:53;26.04;47.95
6930;DHT22;3504;52.616;13.238;2023-07-08T07:32:53;26.42;47.48
6930;DHT22;3504;52.616;13.238;2023-07-08T07:37:54;26.57;47.00
6930;DHT22;3504;52.616;13.238;2023-07-08T07:42:54;26.66;46.05
6930;DHT22;3504;52.616;13.238;2023-07-08T07:47:55;26.85;46.56
6930;DHT22;3504;52.616;13.238;2023-07-08T07:52:55;26.70;45.33
6930;DHT22;3504;52.616;13.238;2023-07-08T07:57:56;26.96;44.14
6930;DHT22;3504;52.616;13.238;2023-07-08T08:02:56;27.31;44.70
6930;DHT22;3504;52.616;13.238;2023-07-08T08:07:57;27.54;44.17
6930;DHT22;3504;52.616;13.238;2023-07-08T08:12:57;27.79;42.20
6930;DHT22;3504;52.616;13.238;2023-07-08T08:17:58;27.84;42.42
6930;DHT22;3504;52.616;13.238;2023-07-08T08:22:58;28.08;42.45
6930;DHT22;3504;52.616;13.238;2023-07-08T08:27:59;28.32;38.39
6930;DHT22;3504;52.616;13.238;2023-07-08T08:33:00;28.43;41.18
6930;DHT22;3504;52.616;13.238;2023-07-08T08:38:00;28.67;39.73
6930;DHT22;3504;52.616;13.238;2023-07-08T08:43:10;28.87;39.78
6930;DHT22;3504;52.616;13.238;2023-07-08T08:48:15;28.87;36.83
6930;DHT22;3504;52.616;13.238;2023-07-08T08:53:20;29.04;35.34
6930;DHT22;3504;52.616;13.238;2023-07-08T08:58:37;29.34;37.46
6930;DHT22;3504;52.616;13.238;2023-07-08T09:09:11;29.77;31.91
6930;DHT22;3504;52.616;13.238;2023-07-08T09:14:27;29.89;31.30
6930;DHT22;3504;52.616;13.238;2023-07-08T09:19:38;30.13;31.46
6930;DHT22;3504;52.616;13.238;2023-07-08T09:24:51;30.17;26.51
6930;DHT22;3504;52.616;13.238;2023-07-08T09:29:53;30.41;26.27
6930;DHT22;3504;52.616;13.238;2023-07-08T09:35:07;30.81;26.59
6930;DHT22;3504;52.616;13.238;2023-07-08T09:40:17;30.99;27.12
6930;DHT22;3504;52.616;13.238;2023-07-08T09:45:24;31.15;26.82
6930;DHT22;3504;52.616;13.238;2023-07-08T09:50:29;31.03;25.16
6930;DHT22;3504;52.616;13.238;2023-07-08T09:55:32;31.27;26.76
6930;DHT22;3504;52.616;13.238;2023-07-08T10:00:40;31.43;26.74
6930;DHT22;3504;52.616;13.238;2023-07-08T10:05:42;31.63;29.03
6930;DHT22;3504;52.616;13.238;2023-07-08T10:10:45;31.90;29.51
6930;DHT22;3504;52.616;13.238;2023-07-08T10:16:06;31.81;29.06
6930;DHT22;3504;52.616;13.238;2023-07-08T10:26:35;32.18;27.28
6930;DHT22;3504;52.616;13.238;2023-07-08T10:53:30;32.35;25.76
6930;DHT22;3504;52.616;13.238;2023-07-08T11:04:30;33.07;26.82
6930;DHT22;3504;52.616;13.238;2023-07-08T11:09:51;32.99;24.56
6930;DHT22;3504;52.616;13.238;2023-07-08T11:15:12;32.78;24.66
6930;DHT22;3504;52.616;13.238;2023-07-08T11:20:23;32.42;24.93
6930;DHT22;3504;52.616;13.238;2023-07-08T11:25:26;32.62;26.54
6930;DHT22;3504;52.616;13.238;2023-07-08T11:30:30;32.92;25.94
6930;DHT22;3504;52.616;13.238;2023-07-08T11:35:43;33.15;25.57
6930;DHT22;3504;52.616;13.238;2023-07-08T11:41:03;32.86;24.39
6930;DHT22;3504;52.616;13.238;2023-07-08T11:46:06;32.83;26.91
6930;DHT22;3504;52.616;13.238;2023-07-08T11:51:07;32.66;25.54
6930;DHT22;3504;52.616;13.238;2023-07-08T11:56:18;32.86;24.54
6930;DHT22;3504;52.616;13.238;2023-07-08T12:01:28;32.99;25.10
6930;DHT22;3504;52.616;13.238;2023-07-08T12:11:34;33.25;27.41
6930;DHT22;3504;52.616;13.238;2023-07-08T12:16:35;33.15;23.51
6930;DHT22;3504;52.616;13.238;2023-07-08T12:21:36;32.93;25.01
6930;DHT22;3504;52.616;13.238;2023-07-08T12:26:37;32.95;24.21
6930;DHT22;3504;52.616;13.238;2023-07-08T12:31:38;32.72;23.90
6930;DHT22;3504;52.616;13.238;2023-07-08T12:36:38;32.72;24.60
6930;DHT22;3504;52.616;13.238;2023-07-08T12:41:39;32.71;24.19
6930;DHT22;3504;52.616;13.238;2023-07-08T12:46:40;32.64;24.50
6930;DHT22;3504;52.616;13.238;2023-07-08T12:51:45;32.42;23.72
6930;DHT22;3504;52.616;13.238;2023-07-08T12:56:46;32.46;25.72
6930;DHT22;3504;52.616;13.238;2023-07-08T13:01:48;32.52;25.20
6930;DHT22;3504;52.616;13.238;2023-07-08T13:06:49;32.29;23.68
6930;DHT22;3504;52.616;13.238;2023-07-08T13:11:50;32.10;24.64
6930;DHT22;3504;52.616;13.238;2023-07-08T13:16:52;32.27;25.99
6930;DHT22;3504;52.616;13.238;2023-07-08T13:21:53;32.25;25.00
6930;DHT22;3504;52.616;13.238;2023-07-08T13:26:55;32.44;26.52
6930;DHT22;3504;52.616;13.238;2023-07-08T13:32:05;32.28;23.59
6930;DHT22;3504;52.616;13.238;2023-07-08T13:37:15;32.24;25.15
6930;DHT22;3504;52.616;13.238;2023-07-08T13:42:16;32.21;24.31
6930;DHT22;3504;52.616;13.238;2023-07-08T13:47:27;32.36;26.07
6930;DHT22;3504;52.616;13.238;2023-07-08T13:52:29;32.31;25.11
6930;DHT22;3504;52.616;13.238;2023-07-08T13:57:37;32.34;25.01
6930;DHT22;3504;52.616;13.238;2023-07-08T14:02:43;32.34;25.29
6930;DHT22;3504;52.616;13.238;2023-07-08T14:07:44;32.34;25.71
6930;DHT22;3504;52.616;13.238;2023-07-08T14:12:45;32.35;24.97
6930;DHT22;3504;52.616;13.238;2023-07-08T14:17:45;32.39;25.32
6930;DHT22;3504;52.616;13.238;2023-07-08T14:22:46;32.28;24.64
6930;DHT22;3504;52.616;13.238;2023-07-08T14:27:46;32.18;25.28
6930;DHT22;3504;52.616;13.238;2023-07-08T14:32:47;32.34;26.39
6930;DHT22;3504;52.616;13.238;2023-07-08T14:37:48;32.34;25.08
6930;DHT22;3504;52.616;13.238;2023-07-08T14:42:54;32.42;25.45
6930;DHT22;3504;52.616;13.238;2023-07-08T14:47:56;32.21;25.54
6930;DHT22;3504;52.616;13.238;2023-07-08T14:52:56;32.21;23.25
6930;DHT22;3504;52.616;13.238;2023-07-08T14:57:57;31.97;24.81
6930;DHT22;3504;52.616;13.238;2023-07-08T15:02:58;31.98;26.04
6930;DHT22;3504;52.616;13.238;2023-07-08T15:07:58;31.93;26.24
6930;DHT22;3504;52.616;13.238;2023-07-08T15:13:00;32.05;24.76
6930;DHT22;3504;52.616;13.238;2023-07-08T15:18:01;32.10;24.54
6930;DHT22;3504;52.616;13.238;2023-07-08T15:23:04;32.03;25.21
6930;DHT22;3504;52.616;13.238;2023-07-08T15:28:05;31.97;24.92
6930;DHT22;3504;52.616;13.238;2023-07-08T15:33:09;31.78;25.16
6930;DHT22;3504;52.616;13.238;2023-07-08T15:38:09;31.70;25.55
6930;DHT22;3504;52.616;13.238;2023-07-08T15:43:14;31.67;26.00
6930;DHT22;3504;52.616;13.238;2023-07-08T15:48:17;31.73;26.91
6930;DHT22;3504;52.616;13.238;2023-07-08T15:53:17;31.76;26.56
6930;DHT22;3504;52.616;13.238;2023-07-08T15:58:28;31.74;25.25
6930;DHT22;3504;52.616;13.238;2023-07-08T16:03:32;31.54;25.48
6930;DHT22;3504;52.616;13.238;2023-07-08T16:08:34;31.46;26.93
6930;DHT22;3504;52.616;13.238;2023-07-08T16:13:37;31.46;27.23
6930;DHT22;3504;52.616;13.238;2023-07-08T16:18:38;31.39;27.89
6930;DHT22;3504;52.616;13.238;2023-07-08T16:23:38;31.35;27.33
6930;DHT22;3504;52.616;13.238;2023-07-08T16:28:46;31.36;26.81
6930;DHT22;3504;52.616;13.238;2023-07-08T16:33:48;31.27;26.77
6930;DHT22;3504;52.616;13.238;2023-07-08T16:38:49;31.15;27.43
6930;DHT22;3504;52.616;13.238;2023-07-08T16:43:50;31.00;25.66
6930;DHT22;3504;52.616;13.238;2023-07-08T16:48:54;31.00;26.15
6930;DHT22;3504;52.616;13.238;2023-07-08T16:54:11;30.98;28.09
6930;DHT22;3504;52.616;13.238;2023-07-08T16:59:14;30.85;26.06
6930;DHT22;3504;52.616;13.238;2023-07-08T17:04:15;30.71;27.08
6930;DHT22;3504;52.616;13.238;2023-07-08T17:09:15;30.60;28.63
6930;DHT22;3504;52.616;13.238;2023-07-08T17:14:16;30.50;27.18
6930;DHT22;3504;52.616;13.238;2023-07-08T17:19:16;30.41;27.45
6930;DHT22;3504;52.616;13.238;2023-07-08T17:24:17;30.24;27.32
6930;DHT22;3504;52.616;13.238;2023-07-08T17:29:17;29.97;28.23
6930;DHT22;3504;52.616;13.238;2023-07-08T17:34:21;29.79;28.67
6930;DHT22;3504;52.616;13.238;2023-07-08T17:39:22;29.59;28.49
6930;DHT22;3504;52.616;13.238;2023-07-08T17:44:23;29.41;28.66
6930;DHT22;3504;52.616;13.238;2023-07-08T17:49:26;29.31;28.90
6930;DHT22;3504;52.616;13.238;2023-07-08T17:54:27;29.14;30.95
6930;DHT22;3504;52.616;13.238;2023-07-08T17:59:31;28.95;31.71
6930;DHT22;3504;52.616;13.238;2023-07-08T18:04:31;28.74;31.82
6930;DHT22;3504;52.616;13.238;2023-07-08T18:09:33;28.54;34.14
6930;DHT22;3504;52.616;13.238;2023-07-08T18:14:33;28.35;34.39
6930;DHT22;3504;52.616;13.238;2023-07-08T18:19:34;28.09;35.35
6930;DHT22;3504;52.616;13.238;2023-07-08T18:24:34;27.89;36.01
6930;DHT22;3504;52.616;13.238;2023-07-08T18:29:35;27.69;37.28
6930;DHT22;3504;52.616;13.238;2023-07-08T18:34:35;27.51;38.18
6930;DHT22;3504;52.616;13.238;2023-07-08T18:39:36;27.28;40.07
6930;DHT22;3504;52.616;13.238;2023-07-08T18:44:37;26.93;39.02
6930;DHT22;3504;52.616;13.238;2023-07-08T18:49:38;26.70;39.11
6930;DHT22;3504;52.616;13.238;2023-07-08T18:54:38;26.59;39.52
6930;DHT22;3504;52.616;13.238;2023-07-08T18:59:39;26.45;40.62
6930;DHT22;3504;52.616;13.238;2023-07-08T19:04:39;26.22;40.66
6930;DHT22;3504;52.616;13.238;2023-07-08T19:09:40;26.09;41.24
6930;DHT22;3504;52.616;13.238;2023-07-08T19:14:40;25.83;41.98
6930;DHT22;3504;52.616;13.238;2023-07-08T19:19:41;25.75;42.30
6930;DHT22;3504;52.616;13.238;2023-07-08T19:24:42;25.57;43.40
6930;DHT22;3504;52.616;13.238;2023-07-08T19:29:42;25.46;42.87
6930;DHT22;3504;52.616;13.238;2023-07-08T19:34:46;25.27;43.57
6930;DHT22;3504;52.616;13.238;2023-07-08T19:39:47;25.12;42.94
6930;DHT22;3504;52.616;13.238;2023-07-08T19:44:48;24.99;43.06
6930;DHT22;3504;52.616;13.238;2023-07-08T19:49:49;24.89;43.15
6930;DHT22;3504;52.616;13.238;2023-07-08T19:54:49;24.72;43.28
6930;DHT22;3504;52.616;13.238;2023-07-08T19:59:50;24.60;44.13
6930;DHT22;3504;52.616;13.238;2023-07-08T20:04:50;24.50;44.05
6930;DHT22;3504;52.616;13.238;2023-07-08T20:09:51;24.36;44.50
6930;DHT22;3504;52.616;13.238;2023-07-08T20:14:51;24.13;43.58
6930;DHT22;3504;52.616;13.238;2023-07-08T20:19:53;24.03;43.74
6930;DHT22;3504;52.616;13.238;2023-07-08T20:24:54;23.85;43.41
6930;DHT22;3504;52.616;13.238;2023-07-08T20:29:55;23.80;43.64
6930;DHT22;3504;52.616;13.238;2023-07-08T20:34:55;23.67;43.09
6930;DHT22;3504;52.616;13.238;2023-07-08T20:39:56;23.59;43.39
6930;DHT22;3504;52.616;13.238;2023-07-08T20:44:57;23.49;43.92
6930;DHT22;3504;52.616;13.238;2023-07-08T20:49:57;23.39;43.93
6930;DHT22;3504;52.616;13.238;2023-07-08T20:54:58;23.28;43.93
6930;DHT22;3504;52.616;13.238;2023-07-08T20:59:58;23.18;44.37
6930;DHT22;3504;52.616;13.238;2023-07-08T21:04:59;23.07;45.06
6930;DHT22;3504;52.616;13.238;2023-07-08T21:10:00;22.95;44.98
6930;DHT22;3504;52.616;13.238;2023-07-08T21:15:00;22.83;45.60
6930;DHT22;3504;52.616;13.238;2023-07-08T21:20:01;22.71;45.97
6930;DHT22;3504;52.616;13.238;2023-07-08T21:25:01;22.57;47.05
6930;DHT22;3504;52.616;13.238;2023-07-08T21:30:08;22.40;46.93
6930;DHT22;3504;52.616;13.238;2023-07-08T21:35:11;22.29;47.06
6930;DHT22;3504;52.616;13.238;2023-07-08T21:40:36;22.16;47.64
6930;DHT22;3504;52.616;13.238;2023-07-08T21:45:39;22.02;48.26
6930;DHT22;3504;52.616;13.238;2023-07-08T21:50:51;21.89;48.11
6930;DHT22;3504;52.616;13.238;2023-07-08T21:55:53;21.76;49.25
6930;DHT22;3504;52.616;13.238;2023-07-08T22:00:54;21.61;49.64
6930;DHT22;3504;52.616;13.238;2023-07-08T22:05:56;21.50;49.64
6930;DHT22;3504;52.616;13.238;2023-07-08T22:10:59;21.31;50.08
6930;DHT22;3504;52.616;13.238;2023-07-08T22:16:11;21.15;50.31
6930;DHT22;3504;52.616;13.238;2023-07-08T22:21:29;21.04;51.09
6930;DHT22;3504;52.616;13.238;2023-07-08T22:26:32;20.93;50.95
6930;DHT22;3504;52.616;13.238;2023-07-08T22:31:38;20.82;51.76
6930;DHT22;3504;52.616;13.238;2023-07-08T22:36:39;20.72;51.89
6930;DHT22;3504;52.616;13.238;2023-07-08T22:41:50;20.63;52.22
6930;DHT22;3504;52.616;13.238;2023-07-08T22:46:51;20.51;55.09
6930;DHT22;3504;52.616;13.238;2023-07-08T22:51:56;20.33;54.44
6930;DHT22;3504;52.616;13.238;2023-07-08T22:56:56;20.28;53.72
6930;DHT22;3504;52.616;13.238;2023-07-08T23:01:57;20.20;54.38
6930;DHT22;3504;52.616;13.238;2023-07-08T23:06:57;20.05;56.00
6930;DHT22;3504;52.616;13.238;2023-07-08T23:11:58;19.88;55.49
6930;DHT22;3504;52.616;13.238;2023-07-08T23:16:58;19.80;56.45
6930;DHT22;3504;52.616;13.238;2023-07-08T23:21:59;19.70;56.77
6930;DHT22;3504;52.616;13.238;2023-07-08T23:26:59;19.63;56.39
6930;DHT22;3504;52.616;13.238;2023-07-08T23:32:00;19.51;56.93
6930;DHT22;3504;52.616;13.238;2023-07-08T23:37:01;19.42;57.59
6930;DHT22;3504;52.616;13.238;2023-07-08T23:42:03;19.29;59.52
6930;DHT22;3504;52.616;13.238;2023-07-08T23:47:04;19.15;59.62
6930;DHT22;3504;52.616;13.238;2023-07-08T23:52:05;19.03;59.41
6930;DHT22;3504;52.616;13.238;2023-07-08T23:57:16;18.87;60.83
